createdAt,value
2022-08-26T00:01:13.782Z,16.43
2022-08-26T00:03:43.263Z,16.43
2022-08-26T00:06:12.090Z,16.43
2022-08-26T00:08:43.675Z,16.41
2022-08-26T00:11:26.250Z,16.39
2022-08-26T00:13:58.252Z,16.35
2022-08-26T00:16:29.767Z,16.31
2022-08-26T00:19:00.295Z,16.27
2022-08-26T00:21:29.516Z,16.21
2022-08-26T00:23:59.622Z,16.18
2022-08-26T00:26:29.280Z,16.15
2022-08-26T00:28:58.793Z,16.11
2022-08-26T00:31:31.206Z,16.06
2022-08-26T00:34:00.788Z,15.97
2022-08-26T00:36:29.577Z,15.90
2022-08-26T00:38:59.410Z,15.85
2022-08-26T00:41:29.176Z,15.79
2022-08-26T00:43:58.405Z,15.75
2022-08-26T00:46:37.352Z,15.71
2022-08-26T00:49:17.042Z,15.68
2022-08-26T00:51:53.504Z,15.63
2022-08-26T00:54:26.970Z,15.57
2022-08-26T00:57:01.273Z,15.52
2022-08-26T00:59:32.977Z,15.45
2022-08-26T01:02:03.374Z,15.38
2022-08-26T01:04:37.312Z,15.36
2022-08-26T01:07:07.682Z,15.32
2022-08-26T01:09:39.377Z,15.27
2022-08-26T01:12:09.224Z,15.25
2022-08-26T01:14:41.373Z,15.22
2022-08-26T01:17:16.928Z,15.17
2022-08-26T01:19:58.693Z,15.09
2022-08-26T01:22:52.316Z,15.02
2022-08-26T01:25:23.156Z,14.92
2022-08-26T01:27:58.141Z,14.84
2022-08-26T01:30:31.616Z,14.75
2022-08-26T01:33:09.799Z,14.71
2022-08-26T01:35:40.062Z,14.69
2022-08-26T01:38:11.503Z,14.67
2022-08-26T01:40:44.200Z,14.68
2022-08-26T01:43:21.636Z,14.69
2022-08-26T01:45:55.352Z,14.73
2022-08-26T01:48:29.201Z,14.76
2022-08-26T01:51:00.510Z,14.78
2022-08-26T01:53:30.849Z,14.76
2022-08-26T01:56:03.478Z,14.75
2022-08-26T01:58:52.945Z,14.74
2022-08-26T02:01:29.124Z,14.70
2022-08-26T02:04:09.172Z,14.65
2022-08-26T02:06:40.508Z,14.61
2022-08-26T02:09:12.057Z,14.56
2022-08-26T02:11:42.419Z,14.53
2022-08-26T02:14:21.663Z,14.52
2022-08-26T02:16:54.192Z,14.53
2022-08-26T02:19:28.153Z,14.53
2022-08-26T02:22:05.162Z,14.55
2022-08-26T02:25:08.686Z,14.57
2022-08-26T02:27:37.936Z,14.55
2022-08-26T02:30:11.032Z,14.53
2022-08-26T02:32:42.403Z,14.50
2022-08-26T02:35:20.006Z,14.48
2022-08-26T02:37:51.073Z,14.45
2022-08-26T02:40:25.608Z,14.38
2022-08-26T02:42:57.096Z,14.37
2022-08-26T02:45:29.408Z,14.35
2022-08-26T02:48:01.160Z,14.33
2022-08-26T02:50:31.193Z,14.31
2022-08-26T02:53:00.696Z,14.30
2022-08-26T02:55:30.538Z,14.30
2022-08-26T02:58:00.325Z,14.31
2022-08-26T03:00:30.631Z,14.30
2022-08-26T03:03:00.718Z,14.27
2022-08-26T03:05:29.987Z,14.24
2022-08-26T03:07:59.660Z,14.22
2022-08-26T03:10:32.592Z,14.21
2022-08-26T03:13:05.095Z,14.18
2022-08-26T03:15:35.242Z,14.14
2022-08-26T03:18:05.273Z,14.11
2022-08-26T03:20:34.832Z,14.08
2022-08-26T03:23:04.502Z,14.05
2022-08-26T03:25:34.328Z,14.01
2022-08-26T03:28:05.037Z,13.99
2022-08-26T03:30:45.314Z,13.99
2022-08-26T03:33:16.055Z,13.98
2022-08-26T03:35:50.493Z,13.98
2022-08-26T03:38:23.294Z,13.96
2022-08-26T03:40:53.438Z,13.95
2022-08-26T03:43:27.398Z,13.94
2022-08-26T03:45:56.192Z,13.91
2022-08-26T03:48:27.850Z,13.87
2022-08-26T03:50:58.285Z,13.87
2022-08-26T03:53:28.839Z,13.86
2022-08-26T03:55:59.258Z,13.85
2022-08-26T03:58:29.012Z,13.85
2022-08-26T04:00:59.881Z,13.86
2022-08-26T04:03:49.498Z,13.88
2022-08-26T04:06:18.677Z,13.89
2022-08-26T04:08:48.590Z,13.90
2022-08-26T04:11:22.711Z,13.93
2022-08-26T04:13:52.811Z,13.95
2022-08-26T04:16:22.326Z,13.96
2022-08-26T04:18:51.760Z,13.97
2022-08-26T04:21:22.502Z,13.97
2022-08-26T04:23:53.365Z,13.96
2022-08-26T04:26:23.441Z,13.95
2022-08-26T04:28:55.244Z,13.92
2022-08-26T04:31:26.681Z,13.90
2022-08-26T04:34:02.189Z,13.88
2022-08-26T04:36:31.881Z,13.87
2022-08-26T04:39:03.171Z,13.89
2022-08-26T04:41:34.056Z,13.91
2022-08-26T04:44:03.905Z,13.96
2022-08-26T04:46:33.822Z,14.02
2022-08-26T04:49:06.458Z,14.07
2022-08-26T04:51:38.132Z,14.15
2022-08-26T04:54:14.339Z,14.25
2022-08-26T04:56:49.801Z,14.31
2022-08-26T04:59:19.592Z,14.38
2022-08-26T05:01:52.364Z,14.48
2022-08-26T05:04:22.428Z,14.57
2022-08-26T05:06:51.961Z,14.66
2022-08-26T05:09:26.552Z,14.75
2022-08-26T05:11:56.616Z,14.85
2022-08-26T05:14:26.803Z,14.96
2022-08-26T05:16:56.565Z,15.09
2022-08-26T05:19:28.039Z,15.20
2022-08-26T05:21:58.532Z,15.33
2022-08-26T05:24:28.085Z,15.47
2022-08-26T05:26:57.809Z,15.59
2022-08-26T05:29:30.441Z,15.72
2022-08-26T05:32:02.513Z,15.86
2022-08-26T05:34:32.697Z,15.99
2022-08-26T05:37:01.287Z,16.10
2022-08-26T05:39:33.388Z,16.22
2022-08-26T05:42:06.059Z,16.34
2022-08-26T05:44:54.028Z,16.47
2022-08-26T05:47:26.982Z,16.66
2022-08-26T05:49:57.172Z,16.82
2022-08-26T05:52:27.628Z,16.99
2022-08-26T05:54:56.923Z,17.16
2022-08-26T05:57:30.237Z,17.33
2022-08-26T06:00:00.646Z,17.48
2022-08-26T06:02:31.402Z,17.63
2022-08-26T06:05:01.238Z,17.81
2022-08-26T06:07:51.416Z,17.97
2022-08-26T06:10:31.948Z,18.14
2022-08-26T06:13:11.905Z,18.30
2022-08-26T06:15:43.809Z,18.50
2022-08-26T06:18:21.540Z,18.68
2022-08-26T06:20:57.396Z,18.84
2022-08-26T06:23:50.230Z,19.00
2022-08-26T06:26:20.921Z,19.18
2022-08-26T06:28:51.269Z,19.34
2022-08-26T06:31:23.434Z,19.55
2022-08-26T06:33:53.945Z,19.74
2022-08-26T06:36:27.024Z,19.95
2022-08-26T06:39:00.328Z,20.16
2022-08-26T06:41:31.999Z,20.34
2022-08-26T06:44:03.365Z,20.50
2022-08-26T06:46:34.259Z,20.68
2022-08-26T06:49:07.065Z,20.87
2022-08-26T06:51:39.444Z,21.08
2022-08-26T06:54:11.725Z,21.30
2022-08-26T06:56:43.424Z,21.49
2022-08-26T06:59:12.995Z,21.66
2022-08-26T07:01:48.487Z,21.84
2022-08-26T07:04:21.997Z,22.02
2022-08-26T07:06:54.617Z,22.15
2022-08-26T07:09:28.737Z,22.33
2022-08-26T07:11:58.015Z,22.52
2022-08-26T07:14:28.214Z,22.72
2022-08-26T07:16:59.418Z,22.90
2022-08-26T07:19:30.955Z,23.08
2022-08-26T07:22:05.579Z,23.31
2022-08-26T07:24:39.348Z,23.51
2022-08-26T07:27:14.148Z,23.75
2022-08-26T07:29:45.262Z,23.94
2022-08-26T07:32:16.143Z,24.13
2022-08-26T07:34:46.210Z,24.33
2022-08-26T07:37:15.852Z,24.53
2022-08-26T07:39:48.088Z,24.71
2022-08-26T07:42:20.058Z,24.87
2022-08-26T07:44:50.854Z,25.04
2022-08-26T07:47:25.557Z,25.23
2022-08-26T07:49:59.006Z,25.45
2022-08-26T07:52:30.892Z,25.63
2022-08-26T07:55:02.344Z,25.82
2022-08-26T07:57:33.122Z,25.98
2022-08-26T08:00:09.164Z,26.11
2022-08-26T08:02:45.131Z,26.30
2022-08-26T08:05:20.308Z,26.47
2022-08-26T08:07:53.530Z,26.65
2022-08-26T08:10:45.054Z,26.90
2022-08-26T08:13:19.730Z,27.07
2022-08-26T08:15:50.440Z,27.26
2022-08-26T08:18:20.497Z,27.42
2022-08-26T08:20:59.417Z,27.55
2022-08-26T08:23:36.159Z,27.70
2022-08-26T08:26:08.937Z,27.83
2022-08-26T08:28:39.450Z,27.95
2022-08-26T08:31:45.000Z,28.03
2022-08-26T08:34:14.198Z,28.22
2022-08-26T08:36:43.881Z,28.41
2022-08-26T08:39:14.024Z,28.58
2022-08-26T08:42:16.488Z,28.69
2022-08-26T08:44:51.910Z,28.85
2022-08-26T08:47:43.422Z,29.05
2022-08-26T08:50:25.715Z,29.32
2022-08-26T08:53:02.078Z,29.45
2022-08-26T08:55:45.413Z,29.58
2022-08-26T08:58:22.566Z,29.68
2022-08-26T09:01:06.020Z,29.89
2022-08-26T09:04:02.141Z,30.08
2022-08-26T09:06:31.989Z,30.30
2022-08-26T09:09:04.183Z,30.52
2022-08-26T09:11:36.812Z,30.59
2022-08-26T09:14:12.809Z,30.79
2022-08-26T09:17:01.587Z,31.03
2022-08-26T09:19:41.873Z,31.32
2022-08-26T09:22:30.451Z,31.58
2022-08-26T09:25:00.800Z,31.74
2022-08-26T09:27:51.239Z,31.83
2022-08-26T09:30:33.626Z,31.87
2022-08-26T09:33:10.990Z,31.90
2022-08-26T09:35:47.513Z,31.99
2022-08-26T09:38:29.769Z,32.14
2022-08-26T09:41:05.882Z,32.08
2022-08-26T09:43:36.936Z,32.02
2022-08-26T09:46:29.267Z,32.11
2022-08-26T09:49:23.824Z,32.19
2022-08-26T09:52:07.506Z,32.16
2022-08-26T09:54:39.014Z,32.19
2022-08-26T09:57:20.171Z,32.14
2022-08-26T09:59:54.193Z,32.11
2022-08-26T10:02:39.941Z,32.12
2022-08-26T10:05:18.627Z,32.34
2022-08-26T10:07:51.752Z,32.53
2022-08-26T10:10:31.349Z,32.48
2022-08-26T10:13:03.778Z,32.48
2022-08-26T10:15:49.998Z,32.54
2022-08-26T10:18:34.777Z,32.58
2022-08-26T10:21:33.192Z,32.58
2022-08-26T10:24:04.922Z,32.66
2022-08-26T10:26:57.936Z,32.69
2022-08-26T10:29:39.124Z,32.81
2022-08-26T10:32:32.492Z,32.96
2022-08-26T10:35:07.043Z,33.29
2022-08-26T10:37:46.406Z,33.55
2022-08-26T10:40:39.019Z,33.76
2022-08-26T10:43:21.253Z,33.77
2022-08-26T10:45:58.410Z,33.69
2022-08-26T10:49:06.689Z,33.70
2022-08-26T10:52:03.108Z,33.76
2022-08-26T10:54:58.823Z,33.77
2022-08-26T10:57:50.064Z,33.66
2022-08-26T11:01:02.503Z,33.64
2022-08-26T11:04:05.582Z,33.80
2022-08-26T11:06:37.097Z,34.04
2022-08-26T11:09:09.940Z,34.32
2022-08-26T11:11:50.165Z,34.60
2022-08-26T11:14:29.190Z,34.67
2022-08-26T11:17:00.519Z,34.80
2022-08-26T11:19:59.384Z,34.89
2022-08-26T11:22:45.454Z,34.73
2022-08-26T11:25:20.627Z,34.81
2022-08-26T11:27:50.000Z,34.84
2022-08-26T11:30:20.010Z,34.81
2022-08-26T11:32:55.514Z,34.71
2022-08-26T11:35:24.928Z,34.92
2022-08-26T11:38:23.234Z,35.24
2022-08-26T11:41:09.281Z,35.40
2022-08-26T11:43:41.077Z,35.35
2022-08-26T11:46:13.063Z,35.36
2022-08-26T11:48:46.279Z,35.34
2022-08-26T11:51:25.463Z,35.24
2022-08-26T11:54:14.636Z,35.18
2022-08-26T11:56:49.171Z,35.05
2022-08-26T12:02:17.731Z,35.28
2022-08-26T12:04:49.868Z,35.35
2022-08-26T12:07:26.302Z,35.33
2022-08-26T12:10:02.448Z,35.42
2022-08-26T12:12:36.261Z,35.56
2022-08-26T12:15:20.725Z,35.65
2022-08-26T12:17:54.515Z,35.74
2022-08-26T12:20:47.217Z,35.93
2022-08-26T12:23:47.817Z,36.09
2022-08-26T12:26:23.323Z,36.25
2022-08-26T12:28:54.998Z,36.40
2022-08-26T12:31:32.735Z,36.53
2022-08-26T12:34:17.692Z,36.63
2022-08-26T12:36:55.192Z,36.87
2022-08-26T12:39:42.788Z,36.93
2022-08-26T12:42:16.215Z,36.67
2022-08-26T12:44:53.725Z,36.53
2022-08-26T12:47:42.810Z,36.46
2022-08-26T12:50:22.372Z,36.33
2022-08-26T12:53:25.235Z,36.09
2022-08-26T12:55:57.623Z,35.79
2022-08-26T12:58:32.059Z,35.75
2022-08-26T13:01:07.722Z,35.80
2022-08-26T13:03:45.306Z,36.02
2022-08-26T13:06:24.067Z,36.17
2022-08-26T13:09:25.116Z,36.18
2022-08-26T13:11:53.920Z,36.21
2022-08-26T13:14:25.242Z,36.39
2022-08-26T13:16:54.369Z,36.59
2022-08-26T13:19:27.005Z,36.55
2022-08-26T13:21:59.009Z,36.30
2022-08-26T13:24:38.896Z,36.15
2022-08-26T13:27:11.943Z,36.01
2022-08-26T13:29:41.842Z,36.00
2022-08-26T13:32:11.301Z,35.83
2022-08-26T13:34:40.881Z,35.74
2022-08-26T13:37:10.814Z,35.68
2022-08-26T13:39:42.295Z,35.62
2022-08-26T13:42:10.903Z,35.61
2022-08-26T13:44:44.720Z,35.59
2022-08-26T13:47:14.546Z,35.61
2022-08-26T13:49:44.668Z,35.55
2022-08-26T13:52:13.987Z,35.59
2022-08-26T13:54:43.907Z,35.57
2022-08-26T13:57:14.370Z,35.69
2022-08-26T13:59:43.826Z,35.60
2022-08-26T14:02:13.609Z,35.59
2022-08-26T14:04:43.610Z,35.49
2022-08-26T14:07:14.742Z,35.34
2022-08-26T14:09:45.068Z,35.13
2022-08-26T14:12:14.935Z,34.96
2022-08-26T14:14:45.483Z,34.84
2022-08-26T14:17:23.591Z,34.79
2022-08-26T14:19:54.194Z,34.85
2022-08-26T14:22:24.448Z,34.89
2022-08-26T14:24:53.075Z,34.91
2022-08-26T14:27:23.003Z,34.98
2022-08-26T14:29:52.837Z,34.90
2022-08-26T14:32:27.053Z,34.84
2022-08-26T14:34:58.396Z,34.78
2022-08-26T14:37:28.618Z,34.75
2022-08-26T14:39:58.128Z,34.87
2022-08-26T14:42:31.402Z,34.91
2022-08-26T14:45:03.424Z,34.80
2022-08-26T14:47:33.693Z,34.68
2022-08-26T14:50:04.868Z,34.64
2022-08-26T14:52:54.511Z,34.57
2022-08-26T14:55:23.991Z,34.57
2022-08-26T14:57:54.473Z,34.44
2022-08-26T15:00:24.313Z,34.42
2022-08-26T15:02:52.973Z,34.29
2022-08-26T15:05:23.420Z,34.12
2022-08-26T15:07:52.899Z,34.04
2022-08-26T15:10:23.515Z,34.04
2022-08-26T15:12:53.765Z,34.01
2022-08-26T15:15:23.651Z,34.00
2022-08-26T15:17:54.106Z,33.92
2022-08-26T15:20:24.444Z,34.00
2022-08-26T15:22:53.920Z,34.14
2022-08-26T15:25:24.753Z,34.16
2022-08-26T15:27:54.959Z,34.01
2022-08-26T15:30:24.351Z,33.93
2022-08-26T15:32:53.717Z,33.74
2022-08-26T15:35:25.729Z,33.58
2022-08-26T15:37:56.928Z,33.24
2022-08-26T15:40:27.226Z,32.96
2022-08-26T15:43:11.411Z,32.92
2022-08-26T15:45:46.616Z,32.94
2022-08-26T15:48:16.347Z,32.83
2022-08-26T15:50:56.642Z,32.73
2022-08-26T15:53:30.628Z,32.56
2022-08-26T15:56:00.993Z,32.41
2022-08-26T15:58:33.442Z,32.38
2022-08-26T16:01:07.218Z,32.37
2022-08-26T16:03:37.051Z,32.34
2022-08-26T16:06:07.572Z,32.33
2022-08-26T16:08:37.382Z,32.26
2022-08-26T16:11:07.727Z,32.17
2022-08-26T16:13:39.930Z,32.17
2022-08-26T16:16:11.226Z,32.13
2022-08-26T16:18:42.000Z,31.97
2022-08-26T16:21:23.743Z,31.92
2022-08-26T16:23:53.833Z,31.80
2022-08-26T16:26:26.449Z,31.58
2022-08-26T16:28:55.470Z,31.39
2022-08-26T16:31:25.419Z,31.23
2022-08-26T16:33:55.699Z,31.06
2022-08-26T16:36:25.836Z,30.88
2022-08-26T16:38:56.784Z,30.76
2022-08-26T16:41:29.174Z,30.68
2022-08-26T16:44:00.118Z,30.60
2022-08-26T16:46:30.461Z,30.41
2022-08-26T16:49:01.861Z,30.21
2022-08-26T16:51:32.865Z,30.05
2022-08-26T16:54:09.348Z,29.81
2022-08-26T16:56:38.648Z,29.63
2022-08-26T16:59:11.871Z,29.42
2022-08-26T17:01:42.065Z,29.18
2022-08-26T17:04:12.211Z,29.03
2022-08-26T17:06:41.674Z,28.82
2022-08-26T17:09:11.381Z,28.59
2022-08-26T17:11:40.745Z,28.38
2022-08-26T17:14:11.907Z,28.20
2022-08-26T17:16:41.234Z,27.99
2022-08-26T17:19:11.563Z,27.77
2022-08-26T17:21:41.629Z,27.57
2022-08-26T17:24:11.504Z,27.36
2022-08-26T17:26:48.340Z,27.20
2022-08-26T17:29:21.505Z,27.08
2022-08-26T17:31:51.209Z,26.93
2022-08-26T17:34:22.573Z,26.74
2022-08-26T17:36:52.903Z,26.49
2022-08-26T17:39:23.023Z,26.27
2022-08-26T17:41:52.036Z,26.06
2022-08-26T17:44:21.832Z,25.83
2022-08-26T17:46:51.979Z,25.59
2022-08-26T17:49:22.168Z,25.39
2022-08-26T17:51:51.946Z,25.20
2022-08-26T17:54:21.650Z,25.04
2022-08-26T17:56:53.981Z,24.89
2022-08-26T17:59:24.407Z,24.74
2022-08-26T18:02:00.231Z,24.57
2022-08-26T18:04:29.401Z,24.39
2022-08-26T18:06:58.768Z,24.17
2022-08-26T18:09:32.730Z,23.95
2022-08-26T18:12:01.944Z,23.79
2022-08-26T18:14:33.904Z,23.62
2022-08-26T18:17:03.930Z,23.43
2022-08-26T18:19:33.760Z,23.24
2022-08-26T18:22:03.714Z,23.06
2022-08-26T18:24:33.585Z,22.89
2022-08-26T18:27:03.732Z,22.72
2022-08-26T18:29:33.846Z,22.52
2022-08-26T18:32:03.712Z,22.40
2022-08-26T18:34:32.424Z,22.29
2022-08-26T18:37:02.239Z,22.16
2022-08-26T18:39:31.126Z,22.01
2022-08-26T18:42:00.442Z,21.86
2022-08-26T18:44:30.355Z,21.72
2022-08-26T18:47:00.153Z,21.63
2022-08-26T18:49:32.070Z,21.47
2022-08-26T18:52:01.429Z,21.34
2022-08-26T18:54:31.529Z,21.25
2022-08-26T18:57:03.154Z,21.09
2022-08-26T18:59:33.034Z,20.95
2022-08-26T19:02:03.023Z,20.83
2022-08-26T19:04:32.464Z,20.70
2022-08-26T19:07:01.818Z,20.56
2022-08-26T19:09:32.860Z,20.40
2022-08-26T19:12:05.239Z,20.28
2022-08-26T19:14:36.278Z,20.19
2022-08-26T19:17:06.367Z,20.06
2022-08-26T19:19:38.683Z,19.92
2022-08-26T19:22:08.796Z,19.85
2022-08-26T19:24:38.630Z,19.76
2022-08-26T19:27:09.715Z,19.63
2022-08-26T19:29:41.455Z,19.53
2022-08-26T19:32:11.778Z,19.43
2022-08-26T19:34:41.778Z,19.34
2022-08-26T19:37:11.384Z,19.28
2022-08-26T19:39:39.933Z,19.20
2022-08-26T19:42:11.629Z,19.10
2022-08-26T19:45:00.911Z,19.01
2022-08-26T19:47:31.719Z,18.90
2022-08-26T19:50:01.718Z,18.81
2022-08-26T19:52:32.531Z,18.75
2022-08-26T19:55:03.451Z,18.71
2022-08-26T19:57:34.563Z,18.66
2022-08-26T20:00:14.979Z,18.60
2022-08-26T20:02:44.843Z,18.53
2022-08-26T20:05:15.835Z,18.46
2022-08-26T20:07:45.627Z,18.42
2022-08-26T20:10:17.926Z,18.34
2022-08-26T20:12:49.368Z,18.27
2022-08-26T20:15:24.472Z,18.20
2022-08-26T20:17:58.978Z,18.15
2022-08-26T20:20:48.478Z,18.09
2022-08-26T20:23:18.571Z,18.05
2022-08-26T20:25:48.379Z,18.00
2022-08-26T20:28:19.590Z,17.96
2022-08-26T20:30:49.482Z,17.88
2022-08-26T20:33:20.034Z,17.84
2022-08-26T20:35:49.910Z,17.78
2022-08-26T20:38:21.733Z,17.72
2022-08-26T20:40:51.631Z,17.62
2022-08-26T20:43:26.624Z,17.53
2022-08-26T20:45:56.419Z,17.43
2022-08-26T20:48:26.793Z,17.32
2022-08-26T20:51:06.365Z,17.24
2022-08-26T20:53:36.611Z,17.20
2022-08-26T20:56:08.989Z,17.18
2022-08-26T20:58:39.497Z,17.16
2022-08-26T21:01:18.145Z,17.11
2022-08-26T21:03:47.153Z,17.03
2022-08-26T21:06:18.733Z,16.98
2022-08-26T21:08:50.983Z,16.97
2022-08-26T21:11:20.758Z,16.95
2022-08-26T21:14:04.427Z,16.92
2022-08-26T21:16:39.528Z,16.90
2022-08-26T21:19:12.310Z,16.90
2022-08-26T21:21:42.900Z,16.91
2022-08-26T21:24:13.732Z,16.88
2022-08-26T21:26:43.000Z,16.85
2022-08-26T21:29:14.058Z,16.82
2022-08-26T21:31:46.549Z,16.78
2022-08-26T21:34:19.191Z,16.72
2022-08-26T21:36:49.543Z,16.67
2022-08-26T21:39:19.600Z,16.65
2022-08-26T21:41:49.395Z,16.65
2022-08-26T21:44:19.300Z,16.64
2022-08-26T21:46:50.287Z,16.61
2022-08-26T21:49:20.266Z,16.58
2022-08-26T21:51:50.400Z,16.57
2022-08-26T21:54:20.200Z,16.52
2022-08-26T21:56:49.694Z,16.42
2022-08-26T21:59:20.186Z,16.39
2022-08-26T22:01:51.015Z,16.38
2022-08-26T22:04:22.066Z,16.38
2022-08-26T22:06:55.101Z,16.41
2022-08-26T22:09:27.591Z,16.41
2022-08-26T22:11:59.006Z,16.38
2022-08-26T22:14:30.907Z,16.33
2022-08-26T22:17:01.066Z,16.32
2022-08-26T22:19:32.249Z,16.30
2022-08-26T22:22:04.842Z,16.24
2022-08-26T22:24:35.060Z,16.20
2022-08-26T22:27:07.759Z,16.14
2022-08-26T22:29:38.311Z,16.10
2022-08-26T22:32:08.398Z,16.06
2022-08-26T22:34:37.742Z,16.02
2022-08-26T22:37:08.155Z,15.98
2022-08-26T22:39:38.342Z,15.96
2022-08-26T22:42:10.507Z,15.90
2022-08-26T22:44:41.632Z,15.86
2022-08-26T22:47:11.460Z,15.84
2022-08-26T22:49:41.452Z,15.84
2022-08-26T22:52:11.549Z,15.82
2022-08-26T22:54:40.268Z,15.78
2022-08-26T22:57:10.163Z,15.77
2022-08-26T22:59:41.021Z,15.75
2022-08-26T23:02:12.893Z,15.74
2022-08-26T23:04:42.499Z,15.71
2022-08-26T23:07:12.566Z,15.70
2022-08-26T23:09:42.677Z,15.70
2022-08-26T23:12:14.413Z,15.70
2022-08-26T23:14:44.584Z,15.71
2022-08-26T23:17:14.636Z,15.73
2022-08-26T23:19:44.848Z,15.73
2022-08-26T23:22:13.478Z,15.71
2022-08-26T23:24:43.503Z,15.68
2022-08-26T23:27:13.416Z,15.63
2022-08-26T23:29:43.578Z,15.63
2022-08-26T23:32:13.840Z,15.62
2022-08-26T23:34:59.949Z,15.63
2022-08-26T23:37:33.968Z,15.62
2022-08-26T23:40:15.886Z,15.60
2022-08-26T23:42:46.384Z,15.59
2022-08-26T23:45:18.770Z,15.57
2022-08-26T23:47:51.045Z,15.53
2022-08-26T23:50:50.431Z,15.49
2022-08-26T23:53:23.179Z,15.42
2022-08-26T23:55:54.324Z,15.36
2022-08-26T23:58:24.395Z,15.31
